Time;durP1;ratioP1;P1;durP2;ratioP2;P2;SDS_P1;SDS_P2;PMS_P1;PMS_P2;Temp;Humidity;BMP_temperature;BMP_pressure;BME280_temperature;BME280_humidity;BME280_pressure;Samples;Min_cycle;Max_cycle;Signal;HPM_P1;HPM_P2
2022/12/04 00:01:42;;;;;;;4.43;2.85;;;;;;;5.19;74.26;95700.69;5050879;28;20503;-68
2022/12/04 00:04:08;;;;;;;4.25;2.70;;;;;;;5.15;74.38;95703.41;5051447;28;20036;-67
2022/12/04 00:06:34;;;;;;;4.45;3.13;;;;;;;5.32;74.41;95704.31;5050039;28;20306;-68
2022/12/04 00:08:59;;;;;;;7.22;4.38;;;;;;;5.29;74.08;95707.91;5051321;28;20465;-67
2022/12/04 00:11:27;;;;;;;5.63;4.00;;;;;;;5.21;74.55;95701.44;5049565;28;20098;-67
2022/12/04 00:13:52;;;;;;;5.78;3.88;;;;;;;5.36;74.18;95711.84;5033344;28;20037;-68
2022/12/04 00:16:20;;;;;;;6.95;4.18;;;;;;;5.30;74.03;95704.41;5050813;28;20040;-68
2022/12/04 00:18:45;;;;;;;4.93;3.28;;;;;;;5.32;74.13;95707.75;5033300;28;20568;-68
2022/12/04 00:21:11;;;;;;;5.75;3.95;;;;;;;5.35;73.79;95719.66;5032960;28;20036;-68
2022/12/04 00:23:37;;;;;;;4.30;2.60;;;;;;;5.34;73.62;95718.81;5049403;28;20036;-68
2022/12/04 00:26:04;;;;;;;4.35;3.13;;;;;;;5.28;73.54;95731.97;5048992;28;20412;-68
2022/12/04 00:28:30;;;;;;;4.22;2.88;;;;;;;5.11;74.02;95698.47;5050909;28;20041;-67
2022/12/04 00:30:55;;;;;;;4.97;3.50;;;;;;;5.31;74.02;95723.28;5032731;28;20040;-68
2022/12/04 00:33:21;;;;;;;5.82;3.78;;;;;;;5.29;73.82;95725.94;5050888;28;20029;-68
2022/12/04 00:35:46;;;;;;;4.78;3.17;;;;;;;5.22;74.03;95711.66;5049334;28;20064;-68
2022/12/04 00:38:12;;;;;;;5.05;3.10;;;;;;;5.33;73.68;95709.41;5050901;28;20029;-68
2022/12/04 00:40:37;;;;;;;4.60;2.95;;;;;;;5.46;73.36;95711.38;5050479;28;20496;-68
2022/12/04 00:43:02;;;;;;;4.40;2.95;;;;;;;5.55;73.00;95723.84;5033014;28;20471;-68
2022/12/04 00:45:28;;;;;;;4.90;3.25;;;;;;;5.51;73.27;95720.56;5050605;28;20033;-68
2022/12/04 00:47:53;;;;;;;6.10;3.92;;;;;;;5.45;73.11;95720.03;5049513;28;20028;-68
2022/12/04 00:50:19;;;;;;;4.90;3.08;;;;;;;5.58;72.71;95724.53;5049486;28;20045;-67
2022/12/04 00:52:44;;;;;;;4.53;3.00;;;;;;;5.51;73.10;95724.88;5049203;28;20425;-68
2022/12/04 00:55:10;;;;;;;3.75;2.65;;;;;;;5.44;72.93;95718.38;5049221;28;20040;-68
2022/12/04 00:57:35;;;;;;;3.78;2.85;;;;;;;5.30;73.47;95722.44;5050306;28;20491;-68
2022/12/04 01:00:01;;;;;;;4.28;2.65;;;;;;;5.41;73.14;95723.69;5049181;28;20124;-68
2022/12/04 01:02:26;;;;;;;3.95;2.88;;;;;;;5.43;72.83;95712.38;5050336;28;20029;-68
2022/12/04 01:04:52;;;;;;;4.82;3.70;;;;;;;5.32;73.17;95704.31;5049162;28;20029;-67
2022/12/04 01:07:17;;;;;;;3.90;2.60;;;;;;;5.24;74.01;95725.31;5050253;28;20044;-68
2022/12/04 01:09:42;;;;;;;4.40;2.80;;;;;;;5.28;73.85;95729.41;5050397;28;20040;-67
2022/12/04 01:12:08;;;;;;;3.50;2.30;;;;;;;5.40;73.32;95709.13;5050204;28;20479;-68
2022/12/04 01:14:33;;;;;;;5.28;2.55;;;;;;;5.38;73.49;95720.34;5050193;28;20487;-68
2022/12/04 01:16:59;;;;;;;4.28;3.05;;;;;;;5.29;73.76;95709.63;5032401;28;20521;-67
2022/12/04 01:19:24;;;;;;;3.67;2.47;;;;;;;5.36;73.83;95717.00;5050167;28;20473;-68
2022/12/04 01:21:50;;;;;;;3.50;2.30;;;;;;;5.54;73.17;95714.44;5048957;28;20028;-68
2022/12/04 01:24:16;;;;;;;4.28;3.05;;;;;;;5.53;73.25;95707.63;5049183;28;20468;-68
2022/12/04 01:26:41;;;;;;;4.75;3.05;;;;;;;5.47;73.16;95703.59;5050084;28;20029;-68
2022/12/04 01:29:06;;;;;;;4.45;3.15;;;;;;;5.51;73.01;95707.69;5050676;28;20195;-68
2022/12/04 01:31:32;;;;;;;3.83;2.70;;;;;;;5.32;73.70;95697.44;5049921;28;20499;-68
2022/12/04 01:33:57;;;;;;;4.53;2.65;;;;;;;5.36;73.48;95709.25;5049092;28;20045;-68
2022/12/04 01:36:25;;;;;;;4.70;3.13;;;;;;;5.37;73.74;95708.34;5050913;28;20029;-68
2022/12/04 01:38:50;;;;;;;5.28;3.20;;;;;;;5.58;72.75;95713.38;5052596;28;20557;-68
2022/12/04 01:41:18;;;;;;;5.95;3.45;;;;;;;5.60;72.70;95707.25;5052378;28;20061;-68
2022/12/04 01:43:44;;;;;;;3.67;2.38;;;;;;;5.59;72.75;95702.16;5036126;28;20118;-68
2022/12/04 01:46:09;;;;;;;3.95;2.72;;;;;;;5.62;72.60;95706.34;5052202;28;20461;-68
2022/12/04 01:48:49;;;;;;;3.35;2.22;;;;;;;5.66;72.63;95713.84;5053753;28;20461;-68
2022/12/04 01:51:18;;;;;;;5.28;3.08;;;;;;;5.58;72.85;95710.81;5052357;28;20135;-68
2022/12/04 01:53:55;;;;;;;3.45;2.22;;;;;;;5.55;72.79;95698.06;5053649;28;20029;-68
2022/12/04 01:56:22;;;;;;;4.45;2.33;;;;;;;5.47;73.13;95707.91;5052024;28;20053;-68
2022/12/04 01:58:50;;;;;;;4.45;2.80;;;;;;;5.63;72.63;95711.44;5035820;28;20037;-68
2022/12/04 02:01:16;;;;;;;3.08;2.22;;;;;;;5.61;72.57;95700.34;5035586;28;20053;-68
2022/12/04 02:03:41;;;;;;;3.88;2.50;;;;;;;5.59;72.67;95692.69;5052108;28;20407;-68
2022/12/04 02:06:07;;;;;;;3.90;2.67;;;;;;;5.65;72.05;95682.97;5051912;28;20411;-67
2022/12/04 02:08:32;;;;;;;3.30;2.05;;;;;;;5.55;72.69;95696.31;5052008;28;20066;-68
2022/12/04 02:11:02;;;;;;;2.90;2.00;;;;;;;5.51;72.91;95694.78;5053009;28;20033;-68
2022/12/04 02:13:56;;;;;;;3.42;2.30;;;;;;;5.60;72.64;95688.38;5051945;28;20036;-68
2022/12/04 02:16:28;;;;;;;4.40;1.85;;;;;;;5.50;72.38;95684.56;5035836;28;20036;-67
2022/12/04 02:19:19;;;;;;;3.22;1.80;;;;;;;5.44;72.70;95693.44;5051834;28;20112;-68
2022/12/04 02:21:44;;;;;;;3.03;1.77;;;;;;;5.58;72.40;95687.63;5051621;28;20569;-68
2022/12/04 02:24:27;;;;;;;2.85;1.73;;;;;;;5.66;72.28;95692.41;5051833;28;20041;-68
2022/12/04 02:26:55;;;;;;;2.55;1.70;;;;;;;5.65;72.09;95688.97;5036514;28;20482;-68
2022/12/04 02:29:33;;;;;;;2.38;1.80;;;;;;;5.70;71.95;95692.16;5035261;28;20033;-68
2022/12/04 02:32:21;;;;;;;2.60;1.67;;;;;;;5.73;71.80;95689.41;5052991;28;20048;-68
2022/12/04 02:34:57;;;;;;;2.75;1.77;;;;;;;5.68;71.72;95678.50;5036792;28;20060;-68
2022/12/04 02:37:30;;;;;;;2.58;1.60;;;;;;;5.53;72.23;95687.81;5035717;28;20041;-67
2022/12/04 02:40:03;;;;;;;3.08;1.73;;;;;;;5.49;72.31;95685.47;5052602;28;20040;-68
2022/12/04 02:42:37;;;;;;;2.28;1.50;;;;;;;5.46;72.40;95689.06;5051320;28;20028;-68
2022/12/04 02:45:05;;;;;;;2.25;1.42;;;;;;;5.65;71.77;95680.41;5051269;28;20025;-67
2022/12/04 02:47:31;;;;;;;2.88;1.77;;;;;;;5.62;71.85;95681.38;5017419;28;20043;-68
2022/12/04 02:50:00;;;;;;;2.50;1.55;;;;;;;5.45;72.08;95674.47;5034594;28;20029;-68
2022/12/04 02:52:32;;;;;;;2.25;1.40;;;;;;;5.29;72.63;95671.84;5018006;28;20060;-68
2022/12/04 02:55:01;;;;;;;3.30;1.75;;;;;;;5.50;72.32;95679.41;5034662;28;20498;-68
2022/12/04 02:57:28;;;;;;;2.20;1.50;;;;;;;5.58;71.84;95670.41;5034665;28;20518;-68
2022/12/04 02:59:54;;;;;;;3.45;1.85;;;;;;;5.65;71.72;95686.38;5034556;28;20111;-68
2022/12/04 03:02:33;;;;;;;2.75;1.90;;;;;;;5.67;71.32;95692.31;5034242;28;20041;-68
2022/12/04 03:05:02;;;;;;;2.65;1.80;;;;;;;5.56;72.05;95687.69;5050729;28;20438;-68
2022/12/04 03:07:31;;;;;;;2.45;1.60;;;;;;;5.57;71.49;95678.19;5034564;28;20021;-68
2022/12/04 03:09:59;;;;;;;2.60;1.70;;;;;;;5.69;71.24;95682.75;5034434;28;20041;-68
2022/12/04 03:12:42;;;;;;;2.05;1.45;;;;;;;5.55;71.72;95680.88;5050679;28;20087;-68
2022/12/04 03:15:11;;;;;;;2.50;1.60;;;;;;;5.68;71.14;95670.75;5050701;28;20090;-68
2022/12/04 03:18:03;;;;;;;3.10;1.70;;;;;;;5.66;71.00;95675.19;5034314;28;20497;-68
2022/12/04 03:20:28;;;;;;;2.92;1.70;;;;;;;5.34;72.07;95677.56;5050689;28;20112;-68
2022/12/04 03:22:57;;;;;;;2.70;1.50;;;;;;;5.29;72.49;95682.16;5033939;28;20590;-68
2022/12/04 03:25:25;;;;;;;2.40;1.50;;;;;;;5.23;72.45;95666.97;5050543;28;20090;-68
2022/12/04 03:27:56;;;;;;;2.80;1.83;;;;;;;5.27;72.54;95673.66;5033981;28;20031;-68
2022/12/04 03:30:22;;;;;;;2.42;1.63;;;;;;;5.37;72.02;95680.00;5051586;28;20044;-68
2022/12/04 03:32:55;;;;;;;3.70;1.60;;;;;;;5.24;72.69;95681.53;5033666;28;20441;-67
2022/12/04 03:35:49;;;;;;;2.70;1.85;;;;;;;5.29;72.92;95676.13;5050287;28;20031;-67
2022/12/04 03:38:26;;;;;;;2.80;1.90;;;;;;;5.40;72.32;95666.13;5033677;28;20055;-68
2022/12/04 03:41:05;;;;;;;2.33;1.70;;;;;;;5.25;72.05;95672.88;5050239;28;20037;-68
2022/12/04 03:43:42;;;;;;;2.40;1.38;;;;;;;5.35;72.04;95674.13;5050352;28;20037;-68
2022/12/04 03:46:08;;;;;;;3.08;1.90;;;;;;;5.39;71.93;95679.94;5050104;28;20033;-67
2022/12/04 03:49:02;;;;;;;2.83;1.83;;;;;;;5.31;72.44;95685.47;5051438;28;20028;-68
2022/12/04 03:51:29;;;;;;;2.53;1.67;;;;;;;5.36;72.01;95680.91;5049996;28;20052;-68
2022/12/04 03:53:56;;;;;;;2.95;2.00;;;;;;;5.22;72.63;95675.59;5051609;28;20052;-68
2022/12/04 03:56:24;;;;;;;3.22;1.80;;;;;;;5.30;72.29;95680.41;5033672;28;20107;-68
2022/12/04 03:58:54;;;;;;;2.85;1.77;;;;;;;5.40;71.93;95673.03;5033622;28;20028;-68
2022/12/04 04:01:22;;;;;;;3.08;2.17;;;;;;;5.45;71.52;95679.63;5033607;28;20033;-68
2022/12/04 04:03:49;;;;;;;4.05;2.17;;;;;;;5.37;71.75;95680.00;5033478;28;20032;-67
2022/12/04 04:06:22;;;;;;;3.97;2.03;;;;;;;5.48;71.29;95676.06;5033578;28;20106;-70
2022/12/04 04:08:50;;;;;;;3.10;2.00;;;;;;;5.35;71.56;95684.41;5033533;28;20537;-67
2022/12/04 04:11:17;;;;;;;2.78;1.75;;;;;;;5.43;71.53;95662.56;5050844;28;20594;-67
2022/12/04 04:25:18;;;;;;;3.28;1.88;;;;;;;5.06;72.38;95656.63;5049862;28;20099;-68
2022/12/04 04:27:53;;;;;;;3.38;2.03;;;;;;;5.15;71.89;95663.91;5033475;28;20056;-68
2022/12/04 04:30:19;;;;;;;3.58;2.10;;;;;;;5.19;72.15;95673.19;5033386;28;20108;-68
2022/12/04 04:32:59;;;;;;;3.42;2.17;;;;;;;5.19;72.30;95690.38;5032828;28;20456;-68
2022/12/04 04:35:35;;;;;;;2.97;2.00;;;;;;;5.09;72.55;95687.41;5049534;28;20411;-68
2022/12/04 04:38:11;;;;;;;3.30;2.00;;;;;;;5.13;72.88;95684.63;5033262;28;20033;-68
2022/12/04 04:40:45;;;;;;;3.35;2.25;;;;;;;5.31;72.35;95682.06;5033688;28;20102;-68
2022/12/04 04:43:16;;;;;;;2.65;1.83;;;;;;;5.29;71.95;95689.00;5033035;28;20148;-68
2022/12/04 04:45:45;;;;;;;3.83;2.30;;;;;;;5.26;72.24;95690.00;5050904;28;20025;-68
2022/12/04 04:48:31;;;;;;;3.03;1.90;;;;;;;5.31;72.28;95688.03;5049460;28;20033;-68
2022/12/04 04:50:57;;;;;;;3.47;1.95;;;;;;;5.34;71.98;95687.06;5033600;28;20104;-68
2022/12/04 04:53:27;;;;;;;3.78;2.40;;;;;;;5.26;72.03;95686.59;5049375;28;20083;-68
2022/12/04 04:55:52;;;;;;;3.28;2.00;;;;;;;5.30;72.29;95690.69;5016685;28;20118;-68
2022/12/04 04:58:18;;;;;;;3.95;2.40;;;;;;;5.15;72.37;95676.78;5049401;28;20028;-68
2022/12/04 05:00:56;;;;;;;4.10;2.38;;;;;;;5.20;72.83;95687.72;5032546;28;20037;-67
2022/12/04 05:03:21;;;;;;;4.72;2.85;;;;;;;5.19;72.58;95695.53;5033910;28;20406;-67
2022/12/04 05:05:47;;;;;;;5.50;2.90;;;;;;;5.29;72.29;95692.44;5049103;28;20029;-68
2022/12/04 05:08:12;;;;;;;3.28;2.25;;;;;;;5.35;72.35;95686.16;5050656;28;20487;-68
2022/12/04 05:10:37;;;;;;;3.40;2.20;;;;;;;5.35;72.18;95697.31;5049665;28;20503;-68
2022/12/04 05:13:03;;;;;;;3.33;2.20;;;;;;;5.24;72.69;95691.84;5053017;28;20506;-69
2022/12/04 05:15:28;;;;;;;3.22;2.20;;;;;;;5.10;72.62;95687.34;5054133;28;20025;-68
2022/12/04 05:17:54;;;;;;;3.63;2.28;;;;;;;5.11;72.91;95696.72;5052856;28;20033;-67
2022/12/04 05:20:19;;;;;;;3.50;2.00;;;;;;;5.19;72.81;95698.09;5054046;28;20036;-68
2022/12/04 05:22:45;;;;;;;3.80;2.65;;;;;;;5.26;72.47;95702.03;5052654;28;20033;-67
2022/12/04 05:25:10;;;;;;;3.17;2.10;;;;;;;5.21;72.43;95709.16;5036156;28;20028;-67
2022/12/04 05:27:35;;;;;;;3.30;2.08;;;;;;;5.26;72.29;95710.59;5052605;28;20021;-67
2022/12/04 05:30:01;;;;;;;3.92;2.55;;;;;;;5.16;72.39;95714.53;5054181;28;20064;-68
2022/12/04 05:32:27;;;;;;;3.47;2.25;;;;;;;5.09;72.38;95701.09;5052557;28;20475;-68
2022/12/04 05:34:53;;;;;;;3.38;2.13;;;;;;;5.23;72.14;95705.59;5036306;28;20110;-67
2022/12/04 05:37:19;;;;;;;3.67;1.95;;;;;;;5.28;71.75;95707.97;5035874;28;20079;-67
2022/12/04 05:39:45;;;;;;;2.92;1.85;;;;;;;5.33;71.70;95711.16;5053665;28;20033;-69
2022/12/04 05:42:10;;;;;;;4.68;2.50;;;;;;;5.28;71.84;95703.66;5053258;28;20511;-68
2022/12/04 05:44:36;;;;;;;3.67;2.50;;;;;;;5.34;71.57;95718.81;5050610;28;20519;-68
2022/12/04 05:47:01;;;;;;;3.65;2.58;;;;;;;5.24;71.85;95715.03;5033911;28;20013;-68
2022/12/04 05:49:31;;;;;;;3.97;2.58;;;;;;;5.07;71.88;95712.38;5052759;28;20079;-68
2022/12/04 05:51:56;;;;;;;4.57;2.20;;;;;;;5.21;71.62;95715.16;5034654;28;20099;-69
2022/12/04 05:54:22;;;;;;;5.15;3.00;;;;;;;4.99;72.07;95719.66;5051114;28;20041;-69
2022/12/04 05:56:47;;;;;;;4.95;3.55;;;;;;;5.05;72.05;95722.78;5034973;28;20057;-70
2022/12/04 05:59:13;;;;;;;4.35;2.63;;;;;;;5.00;71.94;95721.31;5053582;28;20472;-69
2022/12/04 06:01:38;;;;;;;5.00;3.00;;;;;;;4.98;71.83;95717.97;5051982;28;20029;-69
2022/12/04 06:04:04;;;;;;;3.20;2.17;;;;;;;4.98;72.08;95728.28;5053126;28;20032;-69
2022/12/04 06:06:29;;;;;;;5.38;2.85;;;;;;;4.79;72.86;95716.25;5053101;28;20033;-69
2022/12/04 06:08:56;;;;;;;4.20;2.90;;;;;;;5.04;72.16;95720.25;5034738;28;20025;-70
2022/12/04 06:11:29;;;;;;;5.05;2.67;;;;;;;4.97;72.35;95718.88;5051734;28;20063;-69
2022/12/04 06:13:58;;;;;;;3.55;2.30;;;;;;;5.08;72.29;95727.78;5035940;28;20052;-69
2022/12/04 06:16:25;;;;;;;3.40;2.40;;;;;;;5.03;72.45;95732.28;5051823;28;20044;-70
2022/12/04 06:18:52;;;;;;;4.38;2.55;;;;;;;5.00;72.33;95711.84;5035153;28;20123;-69
2022/12/04 06:21:18;;;;;;;5.50;3.25;;;;;;;5.24;71.98;95729.66;5035174;28;20033;-69
2022/12/04 06:23:44;;;;;;;5.00;3.25;;;;;;;5.28;71.14;95721.69;5052016;28;20063;-70
2022/12/04 06:26:09;;;;;;;4.78;2.65;;;;;;;5.28;71.44;95739.72;5051666;28;20515;-69
2022/12/04 06:28:35;;;;;;;4.90;2.78;;;;;;;5.06;72.06;95726.19;5053035;28;20025;-69
2022/12/04 06:31:04;;;;;;;4.88;3.42;;;;;;;5.04;72.47;95734.00;5051413;28;20032;-69
2022/12/04 06:33:30;;;;;;;17.95;8.63;;;;;;;5.20;72.09;95728.94;5052956;28;20032;-69
2022/12/04 06:36:03;;;;;;;5.88;3.83;;;;;;;5.12;72.14;95723.31;5034757;28;20446;-69
2022/12/04 06:38:28;;;;;;;6.03;3.90;;;;;;;5.11;71.88;95732.78;5035421;28;20078;-69
2022/12/04 06:40:54;;;;;;;7.38;4.55;;;;;;;5.10;72.16;95730.28;5034813;28;20024;-69
2022/12/04 06:43:19;;;;;;;8.98;6.47;;;;;;;5.23;71.95;95739.09;5051442;28;20033;-69
2022/12/04 06:45:45;;;;;;;4.80;3.17;;;;;;;4.84;72.96;95737.47;5051168;28;20029;-69
2022/12/04 06:48:10;;;;;;;5.75;3.78;;;;;;;5.04;72.36;95735.72;5051344;28;20578;-69
2022/12/04 06:50:35;;;;;;;6.18;3.60;;;;;;;4.97;72.37;95713.75;5051078;28;20117;-69
2022/12/04 06:53:01;;;;;;;4.93;3.13;;;;;;;5.27;72.21;95750.09;5051150;28;20430;-69
2022/12/04 06:55:27;;;;;;;4.68;3.20;;;;;;;5.23;72.18;95761.44;5052566;28;20403;-69
2022/12/04 06:57:52;;;;;;;5.28;3.22;;;;;;;5.19;72.14;95747.06;5052374;28;20410;-69
2022/12/04 07:00:18;;;;;;;6.32;4.25;;;;;;;5.24;72.26;95748.50;5052363;28;20036;-69
2022/12/04 07:02:43;;;;;;;16.52;9.60;;;;;;;5.21;72.47;95748.66;5050845;28;20509;-69
2022/12/04 07:05:09;;;;;;;10.55;6.03;;;;;;;5.17;72.27;95735.97;5052182;28;20090;-70
2022/12/04 07:07:35;;;;;;;7.55;5.10;;;;;;;5.31;71.97;95737.00;5052081;28;20033;-70
2022/12/04 07:10:02;;;;;;;8.50;5.90;;;;;;;5.57;71.58;95752.94;5034339;28;20033;-70
2022/12/04 07:12:27;;;;;;;6.25;4.43;;;;;;;5.65;71.11;95748.25;5034199;28;20029;-70
2022/12/04 07:14:53;;;;;;;7.90;5.35;;;;;;;5.59;71.26;95746.81;5051930;28;20033;-70
2022/12/04 07:17:18;;;;;;;6.63;3.88;;;;;;;5.58;70.77;95747.72;5050673;28;20075;-70
2022/12/04 07:19:44;;;;;;;4.90;3.35;;;;;;;5.81;70.83;95749.19;5050864;28;20037;-70
2022/12/04 07:22:09;;;;;;;5.63;3.72;;;;;;;5.70;70.34;95738.56;5050502;28;20625;-70
2022/12/04 07:24:35;;;;;;;5.47;3.72;;;;;;;5.79;70.32;95758.75;5050644;28;20039;-70
2022/12/04 07:27:01;;;;;;;5.63;3.58;;;;;;;5.73;70.54;95751.28;5034028;28;20112;-69
2022/12/04 07:29:26;;;;;;;5.13;3.30;;;;;;;5.83;70.97;95749.94;5051575;28;20036;-70
2022/12/04 07:31:52;;;;;;;5.65;3.65;;;;;;;5.87;70.64;95737.72;5050406;28;20037;-70
2022/12/04 07:34:17;;;;;;;6.93;3.90;;;;;;;6.09;69.97;95755.56;5051845;28;20032;-70
2022/12/04 07:36:42;;;;;;;5.13;3.28;;;;;;;6.10;69.78;95746.94;5051579;28;20037;-70
2022/12/04 07:39:08;;;;;;;6.80;3.67;;;;;;;6.03;69.92;95743.00;5051959;28;20021;-70
2022/12/04 07:41:34;;;;;;;5.20;3.47;;;;;;;6.09;69.67;95755.56;5050107;28;20045;-70
2022/12/04 07:43:59;;;;;;;4.38;3.05;;;;;;;5.94;70.00;95758.94;5051335;28;20029;-70
2022/12/04 07:46:25;;;;;;;6.32;3.45;;;;;;;6.16;69.30;95764.69;5050104;28;20143;-70
2022/12/04 07:48:51;;;;;;;6.65;3.40;;;;;;;6.16;69.37;95759.53;5051518;28;20025;-69
2022/12/04 07:51:18;;;;;;;4.82;3.28;;;;;;;6.21;69.00;95754.97;5051071;28;20079;-70
2022/12/04 07:53:44;;;;;;;4.50;2.83;;;;;;;6.18;68.66;95752.53;5049862;28;20047;-70
2022/12/04 07:56:10;;;;;;;6.15;4.00;;;;;;;6.24;68.99;95749.66;5016723;28;20057;-70
2022/12/04 07:58:35;;;;;;;4.40;2.72;;;;;;;6.24;68.59;95752.25;5033530;28;20029;-70
2022/12/04 08:01:17;;;;;;;6.07;3.30;;;;;;;6.40;68.17;95735.97;5049851;28;20459;-70
2022/12/04 08:03:43;;;;;;;6.43;3.65;;;;;;;6.56;67.58;95743.75;5034777;28;20033;-70
2022/12/04 08:06:09;;;;;;;5.32;2.88;;;;;;;6.53;67.01;95744.75;5033317;28;20025;-69
2022/12/04 08:08:34;;;;;;;4.38;2.88;;;;;;;6.58;67.48;95755.66;5033105;28;20037;-70
2022/12/04 08:11:00;;;;;;;5.88;4.13;;;;;;;6.83;67.11;95754.38;5033075;28;20025;-69
2022/12/04 08:13:25;;;;;;;5.53;3.55;;;;;;;6.78;65.76;95751.19;5033287;28;20033;-70
2022/12/04 08:15:51;;;;;;;3.80;2.35;;;;;;;6.78;66.01;95746.03;5051219;28;20029;-70
2022/12/04 08:18:17;;;;;;;4.57;2.75;;;;;;;6.82;66.10;95734.63;5033274;28;20487;-70
2022/12/04 08:20:42;;;;;;;8.23;4.38;;;;;;;7.00;66.01;95746.56;5033077;28;20123;-69
2022/12/04 08:23:08;;;;;;;6.00;3.88;;;;;;;7.24;65.00;95761.63;5049692;28;20063;-70
2022/12/04 08:25:33;;;;;;;7.03;3.90;;;;;;;7.36;64.17;95745.47;5050996;28;20098;-70
2022/12/04 08:27:59;;;;;;;4.90;3.13;;;;;;;7.39;64.62;95740.94;5049641;28;20518;-69
2022/12/04 08:30:24;;;;;;;5.38;3.33;;;;;;;7.40;63.71;95728.84;5049525;28;20487;-70
2022/12/04 08:32:50;;;;;;;3.70;2.53;;;;;;;7.61;62.71;95737.16;5051037;28;20472;-70
2022/12/04 08:35:15;;;;;;;3.40;2.40;;;;;;;7.59;62.70;95739.84;5049563;28;20411;-71
2022/12/04 08:37:41;;;;;;;4.05;2.53;;;;;;;7.47;63.18;95743.13;5050686;28;20060;-71
2022/12/04 08:40:06;;;;;;;4.45;2.67;;;;;;;7.60;63.22;95733.75;5049398;28;20033;-71
2022/12/04 08:42:32;;;;;;;4.40;2.88;;;;;;;7.46;63.26;95733.69;5049472;28;20029;-71
2022/12/04 08:44:57;;;;;;;4.47;2.58;;;;;;;7.45;63.56;95732.03;5050778;28;20033;-71
2022/12/04 08:47:23;;;;;;;5.18;3.50;;;;;;;7.57;62.77;95738.25;5054592;28;20037;-70
2022/12/04 08:49:48;;;;;;;8.20;3.75;;;;;;;7.60;63.08;95735.50;5053514;28;20024;-71
2022/12/04 08:52:14;;;;;;;8.07;3.97;;;;;;;7.60;63.19;95743.25;5054478;28;20040;-71
2022/12/04 08:54:40;;;;;;;6.75;3.85;;;;;;;7.55;62.59;95737.50;5053535;28;20040;-71
2022/12/04 08:57:05;;;;;;;5.28;2.88;;;;;;;7.59;63.04;95745.00;5037542;28;20102;-70
2022/12/04 08:59:30;;;;;;;4.15;2.90;;;;;;;7.51;62.89;95736.00;5053581;28;20616;-71
2022/12/04 09:01:56;;;;;;;4.32;2.75;;;;;;;7.69;62.40;95723.78;5053509;28;20029;-71
2022/12/04 09:04:21;;;;;;;3.58;2.60;;;;;;;7.56;63.03;95737.41;5053484;28;20411;-71
2022/12/04 09:06:47;;;;;;;3.95;2.60;;;;;;;7.43;63.14;95733.03;5053388;28;20415;-71
2022/12/04 09:09:12;;;;;;;4.82;2.45;;;;;;;7.60;63.28;95726.00;5053131;28;20519;-71
2022/12/04 09:11:38;;;;;;;7.47;3.90;;;;;;;7.60;62.60;95722.56;5053062;28;20029;-71
2022/12/04 09:14:03;;;;;;;13.38;6.15;;;;;;;7.60;62.87;95725.16;5053471;28;20485;-71
2022/12/04 09:16:29;;;;;;;9.30;4.70;;;;;;;7.66;62.71;95714.47;5053079;28;20471;-71
2022/12/04 09:18:55;;;;;;;6.78;3.60;;;;;;;7.65;62.80;95730.06;5036500;28;20491;-71
2022/12/04 09:21:21;;;;;;;7.72;4.05;;;;;;;7.53;63.08;95716.91;5054104;28;20029;-71
2022/12/04 09:23:46;;;;;;;5.13;3.22;;;;;;;7.47;63.25;95717.25;5019907;28;20456;-71
2022/12/04 09:26:31;;;;;;;8.68;5.45;;;;;;;7.31;63.64;95708.69;5052822;28;20040;-71
2022/12/04 09:28:57;;;;;;;65.20;21.67;;;;;;;7.37;64.17;95710.94;5036435;28;20029;-71
2022/12/04 09:31:23;;;;;;;16.55;6.78;;;;;;;7.36;63.96;95717.03;5053728;28;20040;-71
2022/12/04 09:33:48;;;;;;;11.95;5.00;;;;;;;7.27;64.14;95702.00;5052817;28;20032;-70
2022/12/04 09:36:17;;;;;;;7.85;4.18;;;;;;;7.12;64.44;95706.28;5036105;28;20090;-71
2022/12/04 09:38:43;;;;;;;7.63;4.15;;;;;;;7.15;65.12;95714.69;5036580;28;20069;-71
2022/12/04 09:41:21;;;;;;;5.57;3.30;;;;;;;7.34;64.30;95714.53;5053732;28;20025;-71
2022/12/04 09:44:15;;;;;;;5.45;3.17;;;;;;;7.24;64.25;95702.19;5054175;28;20037;-71
2022/12/04 09:46:49;;;;;;;4.80;2.80;;;;;;;7.32;64.54;95712.94;5053003;28;20444;-71
2022/12/04 09:49:18;;;;;;;5.93;3.47;;;;;;;7.34;64.86;95701.59;5054037;28;20028;-71
2022/12/04 09:51:44;;;;;;;5.47;3.85;;;;;;;7.12;64.94;95683.88;5036060;28;20116;-71
2022/12/04 09:54:16;;;;;;;4.72;3.28;;;;;;;7.42;64.59;95695.19;5052565;28;20032;-71
2022/12/04 09:56:42;;;;;;;5.45;3.20;;;;;;;7.24;65.26;95671.19;5052023;28;20048;-71
2022/12/04 09:59:08;;;;;;;5.40;3.10;;;;;;;7.50;64.35;95673.13;5019332;28;20426;-71
2022/12/04 10:02:09;;;;;;;5.60;2.90;;;;;;;7.50;64.70;95670.56;5053370;28;20029;-71
2022/12/04 10:04:34;;;;;;;4.60;2.92;;;;;;;7.50;64.12;95662.78;5028819;28;20049;-71
2022/12/04 10:07:02;;;;;;;5.07;2.78;;;;;;;7.53;64.56;95662.63;5018903;28;20029;-71
2022/12/04 10:09:30;;;;;;;4.28;2.72;;;;;;;7.52;64.30;95648.03;5035643;28;20040;-71
2022/12/04 10:11:56;;;;;;;4.75;2.97;;;;;;;7.66;63.62;95652.41;5054588;28;20025;-70
2022/12/04 10:15:06;;;;;;;17.13;7.38;;;;;;;7.69;63.92;95646.19;5054077;28;20036;-71
2022/12/04 10:17:46;;;;;;;21.17;8.88;;;;;;;7.29;64.87;95627.81;5050597;28;20041;-70
2022/12/04 10:20:51;;;;;;;10.05;4.68;;;;;;;7.56;64.68;95646.91;5035148;28;20124;-70
2022/12/04 10:24:08;;;;;;;6.78;3.55;;;;;;;7.40;65.19;95620.28;5039403;28;20040;-71
2022/12/04 10:26:36;;;;;;;15.82;7.30;;;;;;;7.39;64.37;95623.78;5040688;28;20064;-71
2022/12/04 10:29:03;;;;;;;8.02;4.97;;;;;;;7.56;64.11;95633.16;5035416;28;20516;-71
2022/12/04 10:31:29;;;;;;;6.45;3.60;;;;;;;7.56;64.13;95626.22;5051521;28;20044;-71
2022/12/04 10:34:04;;;;;;;5.78;3.20;;;;;;;7.61;63.93;95626.81;5018531;28;20037;-71
2022/12/04 10:36:33;;;;;;;5.65;3.60;;;;;;;7.62;63.93;95625.03;5051764;28;20100;-71
2022/12/04 10:39:09;;;;;;;5.55;3.20;;;;;;;7.64;63.24;95612.88;5051589;28;20106;-71
2022/12/04 10:41:51;;;;;;;5.15;3.22;;;;;;;7.65;62.99;95622.28;5036018;28;20036;-71
2022/12/04 10:44:18;;;;;;;6.72;3.03;;;;;;;7.57;63.21;95604.63;5051460;28;20116;-71
2022/12/04 10:46:43;;;;;;;6.28;3.97;;;;;;;7.49;63.01;95609.41;5034498;28;20487;-71
2022/12/04 10:49:17;;;;;;;5.40;3.60;;;;;;;7.29;63.91;95627.81;5034722;28;20043;-71
2022/12/04 10:51:43;;;;;;;5.80;3.95;;;;;;;7.34;63.89;95618.88;5052198;28;20479;-71
2022/12/04 10:54:36;;;;;;;9.00;3.97;;;;;;;7.35;63.38;95611.94;5052775;28;20091;-70
2022/12/04 10:57:04;;;;;;;5.38;3.63;;;;;;;7.32;63.60;95618.13;5051133;28;20063;-71
2022/12/04 10:59:30;;;;;;;6.22;3.90;;;;;;;7.18;64.97;95632.75;5052797;28;20033;-70
2022/12/04 11:02:22;;;;;;;5.88;4.05;;;;;;;7.10;64.75;95618.53;5050959;28;20036;-69
2022/12/04 11:04:54;;;;;;;5.45;3.72;;;;;;;7.11;64.94;95616.78;5051111;28;20025;-70
2022/12/04 11:07:22;;;;;;;5.88;3.90;;;;;;;7.15;64.40;95602.75;5050673;28;20029;-70
2022/12/04 11:10:04;;;;;;;7.05;4.25;;;;;;;7.23;64.47;95618.66;5051370;28;20044;-70
2022/12/04 11:12:29;;;;;;;5.63;3.72;;;;;;;7.32;64.22;95604.38;5050725;28;20465;-70
2022/12/04 11:14:59;;;;;;;6.47;4.25;;;;;;;7.37;63.62;95594.59;5034156;28;20021;-70
2022/12/04 11:17:25;;;;;;;6.38;3.97;;;;;;;7.34;63.59;95600.78;5017663;28;20029;-69
2022/12/04 11:20:07;;;;;;;5.68;3.80;;;;;;;7.31;63.96;95610.47;5017487;28;20091;-70
2022/12/04 11:22:34;;;;;;;6.03;4.05;;;;;;;7.28;64.14;95608.06;5050553;28;20047;-70
2022/12/04 11:25:00;;;;;;;6.13;3.90;;;;;;;7.21;63.75;95607.56;5034090;28;20407;-69
2022/12/04 11:27:30;;;;;;;5.72;3.95;;;;;;;7.23;64.24;95613.50;5050449;28;20029;-69
2022/12/04 11:29:56;;;;;;;6.90;3.80;;;;;;;7.12;63.64;95580.50;5050455;28;20106;-70
2022/12/04 11:32:24;;;;;;;5.60;3.65;;;;;;;7.43;64.05;95614.94;5050198;28;20033;-69
2022/12/04 11:34:50;;;;;;;6.43;4.10;;;;;;;7.10;64.68;95620.25;5050574;28;20035;-69
2022/12/04 11:37:34;;;;;;;5.57;4.05;;;;;;;7.11;63.95;95603.88;5017229;28;20119;-69
2022/12/04 11:40:02;;;;;;;6.45;4.30;;;;;;;7.14;64.08;95598.53;5050191;28;20415;-69
2022/12/04 11:42:28;;;;;;;6.13;4.15;;;;;;;7.01;64.66;95607.88;5017298;28;20032;-70
2022/12/04 11:45:01;;;;;;;6.45;4.40;;;;;;;6.89;65.19;95609.41;5033681;28;20037;-69
2022/12/04 11:47:31;;;;;;;5.90;4.30;;;;;;;6.93;65.09;95608.28;5034010;28;20032;-69
2022/12/04 11:50:04;;;;;;;6.85;4.57;;;;;;;7.08;64.59;95622.13;5050107;28;20491;-70
2022/12/04 11:52:50;;;;;;;6.88;4.32;;;;;;;7.09;64.38;95621.19;5033907;28;20495;-69
2022/12/04 11:55:27;;;;;;;7.13;5.10;;;;;;;7.14;65.53;95614.03;5035067;28;20025;-70
2022/12/04 11:57:59;;;;;;;8.05;5.55;;;;;;;6.91;65.37;95629.06;5050060;28;20064;-70
2022/12/04 12:00:26;;;;;;;;;;;;;;;7.01;65.22;95633.72;5051632;28;20029;-70
2022/12/04 12:03:09;;;;;;;6.18;4.68;;;;;;;6.94;65.23;95622.91;5049840;28;19940;-70